sensor_id;sensor_type;location;lat;lon;timestamp;pressure;altitude;pressure_sealevel;temperature;humidity
52935;BME280;38802;50.198;19.796;2023-03-30T00:01:57;96202.41;;;2.18;60.50
52935;BME280;38802;50.198;19.796;2023-03-30T00:04:25;96206.33;;;2.19;60.87
52935;BME280;38802;50.198;19.796;2023-03-30T00:06:54;96207.67;;;2.19;60.68
52935;BME280;38802;50.198;19.796;2023-03-30T00:09:22;96206.30;;;2.23;60.82
52935;BME280;38802;50.198;19.796;2023-03-30T00:11:50;96204.27;;;2.23;60.81
52935;BME280;38802;50.198;19.796;2023-03-30T00:14:18;96204.59;;;2.27;60.92
52935;BME280;38802;50.198;19.796;2023-03-30T00:16:49;96197.92;;;2.26;60.67
52935;BME280;38802;50.198;19.796;2023-03-30T00:19:17;96199.95;;;2.27;60.97
52935;BME280;38802;50.198;19.796;2023-03-30T00:21:45;96198.55;;;2.31;60.85
52935;BME280;38802;50.198;19.796;2023-03-30T00:24:14;96200.23;;;2.34;60.81
52935;BME280;38802;50.198;19.796;2023-03-30T00:26:42;96197.96;;;2.35;60.91
52935;BME280;38802;50.198;19.796;2023-03-30T00:29:10;96199.20;;;2.34;61.03
52935;BME280;38802;50.198;19.796;2023-03-30T00:31:38;96201.39;;;2.35;61.25
52935;BME280;38802;50.198;19.796;2023-03-30T00:34:06;96200.70;;;2.35;60.98
52935;BME280;38802;50.198;19.796;2023-03-30T00:36:34;96201.69;;;2.36;60.98
52935;BME280;38802;50.198;19.796;2023-03-30T00:39:04;96197.81;;;2.35;61.06
52935;BME280;38802;50.198;19.796;2023-03-30T00:41:36;96199.31;;;2.32;61.26
52935;BME280;38802;50.198;19.796;2023-03-30T00:44:07;96194.34;;;2.36;61.28
52935;BME280;38802;50.198;19.796;2023-03-30T00:46:36;96190.08;;;2.42;61.29
52935;BME280;38802;50.198;19.796;2023-03-30T00:49:08;96187.70;;;2.45;61.16
52935;BME280;38802;50.198;19.796;2023-03-30T00:51:39;96183.41;;;2.48;61.39
52935;BME280;38802;50.198;19.796;2023-03-30T00:54:12;96179.51;;;2.51;61.40
52935;BME280;38802;50.198;19.796;2023-03-30T00:56:42;96176.98;;;2.53;61.42
52935;BME280;38802;50.198;19.796;2023-03-30T00:59:10;96175.27;;;2.57;61.43
52935;BME280;38802;50.198;19.796;2023-03-30T01:01:40;96175.23;;;2.57;61.46
52935;BME280;38802;50.198;19.796;2023-03-30T01:04:11;96170.85;;;2.56;61.53
52935;BME280;38802;50.198;19.796;2023-03-30T01:06:40;96173.09;;;2.59;61.48
52935;BME280;38802;50.198;19.796;2023-03-30T01:09:13;96165.44;;;2.65;61.69
52935;BME280;38802;50.198;19.796;2023-03-30T01:11:42;96163.28;;;2.69;61.71
52935;BME280;38802;50.198;19.796;2023-03-30T01:14:11;96161.95;;;2.72;61.65
52935;BME280;38802;50.198;19.796;2023-03-30T01:22:46;96150.52;;;2.64;61.48
52935;BME280;38802;50.198;19.796;2023-03-30T01:42:21;96147.70;;;2.49;61.73
52935;BME280;38802;50.198;19.796;2023-03-30T01:44:59;96149.94;;;2.45;61.82
52935;BME280;38802;50.198;19.796;2023-03-30T01:47:40;96144.41;;;2.40;62.01
52935;BME280;38802;50.198;19.796;2023-03-30T01:50:20;96140.59;;;2.38;61.81
52935;BME280;38802;50.198;19.796;2023-03-30T01:58:07;96137.04;;;2.49;62.16
52935;BME280;38802;50.198;19.796;2023-03-30T02:00:41;96131.54;;;2.50;61.93
52935;BME280;38802;50.198;19.796;2023-03-30T02:03:17;96133.30;;;2.52;61.93
52935;BME280;38802;50.198;19.796;2023-03-30T02:05:51;96141.45;;;2.54;61.90
52935;BME280;38802;50.198;19.796;2023-03-30T02:08:23;96141.63;;;2.53;62.07
52935;BME280;38802;50.198;19.796;2023-03-30T02:10:55;96138.30;;;2.58;61.87
52935;BME280;38802;50.198;19.796;2023-03-30T02:13:29;96133.69;;;2.62;61.87
52935;BME280;38802;50.198;19.796;2023-03-30T02:16:02;96135.74;;;2.62;61.58
52935;BME280;38802;50.198;19.796;2023-03-30T02:18:31;96131.60;;;2.62;61.66
52935;BME280;38802;50.198;19.796;2023-03-30T02:21:00;96134.17;;;2.65;61.90
52935;BME280;38802;50.198;19.796;2023-03-30T02:23:33;96130.38;;;2.66;61.60
52935;BME280;38802;50.198;19.796;2023-03-30T02:26:03;96129.97;;;2.64;61.76
52935;BME280;38802;50.198;19.796;2023-03-30T02:28:31;96126.14;;;2.62;61.64
52935;BME280;38802;50.198;19.796;2023-03-30T02:31:00;96126.39;;;2.64;61.70
52935;BME280;38802;50.198;19.796;2023-03-30T02:33:40;96126.59;;;2.66;62.04
52935;BME280;38802;50.198;19.796;2023-03-30T02:44:33;96122.65;;;2.63;61.97
52935;BME280;38802;50.198;19.796;2023-03-30T02:47:12;96121.13;;;2.62;61.75
52935;BME280;38802;50.198;19.796;2023-03-30T02:49:46;96122.24;;;2.64;62.21
52935;BME280;38802;50.198;19.796;2023-03-30T02:52:49;96120.85;;;2.65;61.89
52935;BME280;38802;50.198;19.796;2023-03-30T02:55:25;96121.21;;;2.67;62.24
52935;BME280;38802;50.198;19.796;2023-03-30T02:58:35;96119.57;;;2.69;62.15
52935;BME280;38802;50.198;19.796;2023-03-30T03:01:36;96118.46;;;2.67;62.12
52935;BME280;38802;50.198;19.796;2023-03-30T03:04:28;96118.95;;;2.62;62.19
52935;BME280;38802;50.198;19.796;2023-03-30T03:07:29;96119.59;;;2.59;62.16
52935;BME280;38802;50.198;19.796;2023-03-30T03:10:01;96113.83;;;2.51;62.19
52935;BME280;38802;50.198;19.796;2023-03-30T03:12:29;96110.48;;;2.46;62.23
52935;BME280;38802;50.198;19.796;2023-03-30T03:14:57;96109.52;;;2.45;62.49
52935;BME280;38802;50.198;19.796;2023-03-30T03:17:25;96107.33;;;2.44;62.41
52935;BME280;38802;50.198;19.796;2023-03-30T03:19:56;96102.34;;;2.41;62.39
52935;BME280;38802;50.198;19.796;2023-03-30T03:22:24;96100.21;;;2.39;62.48
52935;BME280;38802;50.198;19.796;2023-03-30T03:24:52;96099.12;;;2.37;62.70
52935;BME280;38802;50.198;19.796;2023-03-30T03:27:38;96097.66;;;2.36;62.69
52935;BME280;38802;50.198;19.796;2023-03-30T03:30:12;96091.95;;;2.36;62.56
52935;BME280;38802;50.198;19.796;2023-03-30T03:32:45;96088.30;;;2.34;62.60
52935;BME280;38802;50.198;19.796;2023-03-30T03:35:13;96085.42;;;2.34;62.82
52935;BME280;38802;50.198;19.796;2023-03-30T03:37:41;96079.83;;;2.32;62.71
52935;BME280;38802;50.198;19.796;2023-03-30T03:40:09;96080.98;;;2.27;62.92
52935;BME280;38802;50.198;19.796;2023-03-30T03:42:38;96076.64;;;2.25;62.80
52935;BME280;38802;50.198;19.796;2023-03-30T03:45:09;96072.65;;;2.22;63.00
52935;BME280;38802;50.198;19.796;2023-03-30T03:47:50;96068.90;;;2.18;63.11
52935;BME280;38802;50.198;19.796;2023-03-30T03:50:23;96067.73;;;2.14;63.12
52935;BME280;38802;50.198;19.796;2023-03-30T03:52:52;96064.06;;;2.12;63.10
52935;BME280;38802;50.198;19.796;2023-03-30T03:55:20;96061.08;;;2.13;63.20
52935;BME280;38802;50.198;19.796;2023-03-30T03:57:48;96054.34;;;2.14;63.36
52935;BME280;38802;50.198;19.796;2023-03-30T04:00:16;96052.20;;;2.13;63.29
52935;BME280;38802;50.198;19.796;2023-03-30T04:02:47;96046.70;;;2.13;63.58
52935;BME280;38802;50.198;19.796;2023-03-30T04:05:15;96046.91;;;2.16;63.48
52935;BME280;38802;50.198;19.796;2023-03-30T04:07:43;96042.92;;;2.20;63.71
52935;BME280;38802;50.198;19.796;2023-03-30T04:10:13;96041.34;;;2.25;63.76
52935;BME280;38802;50.198;19.796;2023-03-30T04:13:08;96040.98;;;2.28;63.87
52935;BME280;38802;50.198;19.796;2023-03-30T04:15:49;96038.41;;;2.31;63.97
52935;BME280;38802;50.198;19.796;2023-03-30T04:18:36;96037.92;;;2.37;64.17
52935;BME280;38802;50.198;19.796;2023-03-30T04:21:25;96032.20;;;2.42;64.06
52935;BME280;38802;50.198;19.796;2023-03-30T04:24:14;96031.52;;;2.41;64.29
52935;BME280;38802;50.198;19.796;2023-03-30T04:27:01;96020.59;;;2.44;64.19
52935;BME280;38802;50.198;19.796;2023-03-30T04:29:32;96019.25;;;2.46;64.32
52935;BME280;38802;50.198;19.796;2023-03-30T04:32:17;96020.10;;;2.49;64.33
52935;BME280;38802;50.198;19.796;2023-03-30T04:34:48;96027.23;;;2.54;64.35
52935;BME280;38802;50.198;19.796;2023-03-30T04:37:46;96024.38;;;2.59;64.72
52935;BME280;38802;50.198;19.796;2023-03-30T04:40:31;96028.07;;;2.64;64.83
52935;BME280;38802;50.198;19.796;2023-03-30T04:43:20;96026.50;;;2.71;64.90
52935;BME280;38802;50.198;19.796;2023-03-30T04:46:05;96028.13;;;2.72;64.84
52935;BME280;38802;50.198;19.796;2023-03-30T04:48:33;96020.56;;;2.76;64.98
52935;BME280;38802;50.198;19.796;2023-03-30T04:51:20;96018.40;;;2.81;65.07
52935;BME280;38802;50.198;19.796;2023-03-30T04:54:08;96015.82;;;2.81;65.07
52935;BME280;38802;50.198;19.796;2023-03-30T04:56:55;96010.78;;;2.82;65.35
52935;BME280;38802;50.198;19.796;2023-03-30T04:59:35;96009.50;;;2.87;65.21
52935;BME280;38802;50.198;19.796;2023-03-30T05:02:30;96005.40;;;2.93;65.40
52935;BME280;38802;50.198;19.796;2023-03-30T05:05:27;96002.25;;;2.96;65.48
52935;BME280;38802;50.198;19.796;2023-03-30T05:08:27;95997.97;;;3.03;65.63
52935;BME280;38802;50.198;19.796;2023-03-30T05:11:14;95994.70;;;3.09;65.66
52935;BME280;38802;50.198;19.796;2023-03-30T05:13:45;95997.70;;;3.14;65.64
52935;BME280;38802;50.198;19.796;2023-03-30T05:16:33;96004.55;;;3.20;65.84
52935;BME280;38802;50.198;19.796;2023-03-30T05:19:20;96001.50;;;3.25;66.00
52935;BME280;38802;50.198;19.796;2023-03-30T05:22:09;96001.91;;;3.30;65.88
52935;BME280;38802;50.198;19.796;2023-03-30T05:24:37;95990.83;;;3.34;66.11
52935;BME280;38802;50.198;19.796;2023-03-30T05:27:12;95990.42;;;3.38;66.00
52935;BME280;38802;50.198;19.796;2023-03-30T05:30:03;95991.42;;;3.45;66.07
52935;BME280;38802;50.198;19.796;2023-03-30T05:32:42;95989.64;;;3.50;66.29
52935;BME280;38802;50.198;19.796;2023-03-30T05:35:23;95986.27;;;3.57;66.28
52935;BME280;38802;50.198;19.796;2023-03-30T05:38:10;95985.75;;;3.66;66.38
52935;BME280;38802;50.198;19.796;2023-03-30T05:40:41;95984.79;;;3.73;66.37
52935;BME280;38802;50.198;19.796;2023-03-30T05:43:35;95987.09;;;3.78;66.19
52935;BME280;38802;50.198;19.796;2023-03-30T05:46:22;95984.34;;;3.81;66.92
52935;BME280;38802;50.198;19.796;2023-03-30T05:49:11;95987.52;;;3.85;66.79
52935;BME280;38802;50.198;19.796;2023-03-30T05:51:43;95988.00;;;3.89;66.74
52935;BME280;38802;50.198;19.796;2023-03-30T05:54:19;95988.35;;;3.95;66.69
52935;BME280;38802;50.198;19.796;2023-03-30T05:57:19;95984.09;;;4.02;66.78
52935;BME280;38802;50.198;19.796;2023-03-30T06:00:04;95984.79;;;4.08;66.91
52935;BME280;38802;50.198;19.796;2023-03-30T06:02:45;95981.90;;;4.13;67.06
52935;BME280;38802;50.198;19.796;2023-03-30T06:05:15;95975.98;;;4.17;67.03
52935;BME280;38802;50.198;19.796;2023-03-30T06:07:43;95973.81;;;4.22;67.17
52935;BME280;38802;50.198;19.796;2023-03-30T06:10:12;95971.82;;;4.26;67.13
52935;BME280;38802;50.198;19.796;2023-03-30T06:12:41;95970.71;;;4.33;67.27
52935;BME280;38802;50.198;19.796;2023-03-30T06:15:20;95970.20;;;4.41;67.22
52935;BME280;38802;50.198;19.796;2023-03-30T06:17:53;95964.14;;;4.48;67.30
52935;BME280;38802;50.198;19.796;2023-03-30T06:20:21;95965.85;;;4.53;67.16
52935;BME280;38802;50.198;19.796;2023-03-30T06:22:51;95957.91;;;4.59;67.26
52935;BME280;38802;50.198;19.796;2023-03-30T06:25:21;95953.74;;;4.65;67.41
52935;BME280;38802;50.198;19.796;2023-03-30T06:27:51;95951.34;;;4.70;67.34
52935;BME280;38802;50.198;19.796;2023-03-30T06:30:19;95948.52;;;4.77;67.35
52935;BME280;38802;50.198;19.796;2023-03-30T06:32:50;95947.19;;;4.84;67.32
52935;BME280;38802;50.198;19.796;2023-03-30T06:35:32;95951.47;;;4.93;67.12
52935;BME280;38802;50.198;19.796;2023-03-30T06:38:00;95949.41;;;5.03;67.38
52935;BME280;38802;50.198;19.796;2023-03-30T06:40:29;95951.75;;;5.15;67.41
52935;BME280;38802;50.198;19.796;2023-03-30T06:42:58;95953.92;;;5.24;67.28
52935;BME280;38802;50.198;19.796;2023-03-30T06:45:55;95945.23;;;5.30;67.20
52935;BME280;38802;50.198;19.796;2023-03-30T06:48:25;95946.27;;;5.38;67.32
52935;BME280;38802;50.198;19.796;2023-03-30T06:51:12;95941.89;;;5.47;67.29
52935;BME280;38802;50.198;19.796;2023-03-30T06:53:42;95941.19;;;5.54;67.24
52935;BME280;38802;50.198;19.796;2023-03-30T06:56:10;95941.62;;;5.63;67.36
52935;BME280;38802;50.198;19.796;2023-03-30T06:58:50;95943.95;;;5.73;67.23
52935;BME280;38802;50.198;19.796;2023-03-30T07:01:20;95944.15;;;5.80;67.10
52935;BME280;38802;50.198;19.796;2023-03-30T07:04:21;95939.89;;;5.87;67.13
52935;BME280;38802;50.198;19.796;2023-03-30T07:07:07;95935.30;;;5.91;66.94
52935;BME280;38802;50.198;19.796;2023-03-30T07:09:35;95935.06;;;5.97;66.99
52935;BME280;38802;50.198;19.796;2023-03-30T07:12:04;95933.19;;;6.04;66.96
52935;BME280;38802;50.198;19.796;2023-03-30T07:14:33;95939.58;;;6.12;66.94
52935;BME280;38802;50.198;19.796;2023-03-30T07:17:02;95933.42;;;6.21;66.88
52935;BME280;38802;50.198;19.796;2023-03-30T07:19:31;95929.29;;;6.31;66.78
52935;BME280;38802;50.198;19.796;2023-03-30T07:21:59;95926.26;;;6.39;66.74
52935;BME280;38802;50.198;19.796;2023-03-30T07:24:27;95922.76;;;6.47;66.59
52935;BME280;38802;50.198;19.796;2023-03-30T07:26:57;95920.70;;;6.57;66.62
52935;BME280;38802;50.198;19.796;2023-03-30T07:29:25;95917.90;;;6.65;66.53
52935;BME280;38802;50.198;19.796;2023-03-30T07:31:56;95915.91;;;6.73;66.38
52935;BME280;38802;50.198;19.796;2023-03-30T07:34:24;95910.70;;;6.83;66.40
52935;BME280;38802;50.198;19.796;2023-03-30T07:36:54;95907.33;;;6.94;66.01
52935;BME280;38802;50.198;19.796;2023-03-30T07:39:26;95908.52;;;7.04;66.19
52935;BME280;38802;50.198;19.796;2023-03-30T07:41:54;95907.99;;;7.15;66.25
52935;BME280;38802;50.198;19.796;2023-03-30T07:44:23;95911.36;;;7.26;65.92
52935;BME280;38802;50.198;19.796;2023-03-30T07:46:57;95913.13;;;7.35;65.67
52935;BME280;38802;50.198;19.796;2023-03-30T07:49:25;95911.58;;;7.44;65.64
52935;BME280;38802;50.198;19.796;2023-03-30T07:51:54;95913.27;;;7.53;65.52
52935;BME280;38802;50.198;19.796;2023-03-30T07:54:26;95906.39;;;7.64;65.55
52935;BME280;38802;50.198;19.796;2023-03-30T07:57:23;95898.15;;;7.79;65.41
52935;BME280;38802;50.198;19.796;2023-03-30T07:59:51;95895.30;;;7.92;65.21
52935;BME280;38802;50.198;19.796;2023-03-30T08:02:39;95891.58;;;8.04;65.10
52935;BME280;38802;50.198;19.796;2023-03-30T08:05:08;95886.03;;;8.11;64.60
52935;BME280;38802;50.198;19.796;2023-03-30T08:08:02;95880.86;;;8.13;64.27
52935;BME280;38802;50.198;19.796;2023-03-30T08:10:34;95879.41;;;8.16;64.36
52935;BME280;38802;50.198;19.796;2023-03-30T08:13:02;95885.64;;;8.20;64.52
52935;BME280;38802;50.198;19.796;2023-03-30T08:15:30;95884.34;;;8.26;64.31
52935;BME280;38802;50.198;19.796;2023-03-30T08:17:58;95887.63;;;8.31;64.14
52935;BME280;38802;50.198;19.796;2023-03-30T08:20:32;95882.95;;;8.44;64.05
52935;BME280;38802;50.198;19.796;2023-03-30T08:23:00;95885.21;;;8.55;63.88
52935;BME280;38802;50.198;19.796;2023-03-30T08:25:28;95884.98;;;8.60;63.40
52935;BME280;38802;50.198;19.796;2023-03-30T08:27:57;95879.75;;;8.64;63.35
52935;BME280;38802;50.198;19.796;2023-03-30T08:30:25;95883.46;;;8.70;63.29
52935;BME280;38802;50.198;19.796;2023-03-30T08:32:54;95879.20;;;8.78;63.08
52935;BME280;38802;50.198;19.796;2023-03-30T08:35:22;95881.98;;;8.82;63.19
52935;BME280;38802;50.198;19.796;2023-03-30T08:37:50;95883.96;;;8.90;63.21
52935;BME280;38802;50.198;19.796;2023-03-30T08:40:19;95883.16;;;8.99;62.92
52935;BME280;38802;50.198;19.796;2023-03-30T08:45:39;95879.64;;;9.20;63.28
52935;BME280;38802;50.198;19.796;2023-03-30T08:48:18;95885.74;;;9.33;62.97
52935;BME280;38802;50.198;19.796;2023-03-30T08:50:56;95883.23;;;9.47;62.62
52935;BME280;38802;50.198;19.796;2023-03-30T08:53:27;95877.23;;;9.55;62.44
52935;BME280;38802;50.198;19.796;2023-03-30T08:56:04;95874.18;;;9.56;62.06
52935;BME280;38802;50.198;19.796;2023-03-30T08:58:55;95878.92;;;9.55;62.06
52935;BME280;38802;50.198;19.796;2023-03-30T09:01:48;95875.38;;;9.60;62.27
52935;BME280;38802;50.198;19.796;2023-03-30T09:04:41;95873.63;;;9.70;61.97
52935;BME280;38802;50.198;19.796;2023-03-30T09:07:19;95874.84;;;9.83;62.14
52935;BME280;38802;50.198;19.796;2023-03-30T09:09:49;95873.81;;;9.95;61.92
52935;BME280;38802;50.198;19.796;2023-03-30T09:12:25;95870.17;;;10.05;61.85
52935;BME280;38802;50.198;19.796;2023-03-30T09:15:00;95865.89;;;10.12;61.79
52935;BME280;38802;50.198;19.796;2023-03-30T09:17:38;95860.73;;;10.16;61.18
52935;BME280;38802;50.198;19.796;2023-03-30T09:20:15;95851.40;;;10.17;60.91
52935;BME280;38802;50.198;19.796;2023-03-30T09:22:48;95850.73;;;10.23;61.25
52935;BME280;38802;50.198;19.796;2023-03-30T09:25:19;95846.72;;;10.29;61.41
52935;BME280;38802;50.198;19.796;2023-03-30T09:27:58;95842.27;;;10.36;60.66
52935;BME280;38802;50.198;19.796;2023-03-30T09:30:44;95837.67;;;10.44;60.54
52935;BME280;38802;50.198;19.796;2023-03-30T09:33:26;95826.73;;;10.53;60.42
52935;BME280;38802;50.198;19.796;2023-03-30T09:38:58;95806.86;;;10.85;59.61
52935;BME280;38802;50.198;19.796;2023-03-30T09:44:26;95806.54;;;11.12;59.09
52935;BME280;38802;50.198;19.796;2023-03-30T09:47:00;95804.73;;;11.22;59.33
52935;BME280;38802;50.198;19.796;2023-03-30T09:49:37;95803.26;;;11.30;59.13
52935;BME280;38802;50.198;19.796;2023-03-30T09:52:07;95804.10;;;11.33;58.73
52935;BME280;38802;50.198;19.796;2023-03-30T09:54:36;95798.92;;;11.28;58.41
52935;BME280;38802;50.198;19.796;2023-03-30T09:57:28;95792.21;;;11.24;58.43
52935;BME280;38802;50.198;19.796;2023-03-30T09:59:59;95794.85;;;11.17;58.63
52935;BME280;38802;50.198;19.796;2023-03-30T10:02:38;95795.98;;;11.13;58.63
52935;BME280;38802;50.198;19.796;2023-03-30T10:05:17;95792.23;;;11.10;58.57
52935;BME280;38802;50.198;19.796;2023-03-30T10:07:52;95793.14;;;11.12;58.73
52935;BME280;38802;50.198;19.796;2023-03-30T10:12:54;95783.23;;;11.16;58.30
52935;BME280;38802;50.198;19.796;2023-03-30T10:15:27;95776.54;;;11.20;58.73
52935;BME280;38802;50.198;19.796;2023-03-30T10:18:17;95770.45;;;11.24;58.11
52935;BME280;38802;50.198;19.796;2023-03-30T10:20:50;95762.51;;;11.29;58.44
52935;BME280;38802;50.198;19.796;2023-03-30T10:23:20;95753.90;;;11.41;58.40
52935;BME280;38802;50.198;19.796;2023-03-30T10:25:49;95748.25;;;11.53;57.64
52935;BME280;38802;50.198;19.796;2023-03-30T10:28:30;95744.64;;;11.62;57.52
52935;BME280;38802;50.198;19.796;2023-03-30T10:31:07;95743.95;;;11.68;57.48
52935;BME280;38802;50.198;19.796;2023-03-30T10:33:42;95735.80;;;11.78;57.70
52935;BME280;38802;50.198;19.796;2023-03-30T10:36:13;95729.19;;;11.93;57.96
52935;BME280;38802;50.198;19.796;2023-03-30T10:38:43;95720.72;;;12.10;57.79
52935;BME280;38802;50.198;19.796;2023-03-30T10:41:14;95718.02;;;12.29;57.87
52935;BME280;38802;50.198;19.796;2023-03-30T10:43:47;95716.16;;;12.50;57.21
52935;BME280;38802;50.198;19.796;2023-03-30T10:46:20;95715.14;;;12.64;57.28
52935;BME280;38802;50.198;19.796;2023-03-30T10:49:02;95713.47;;;12.77;56.81
52935;BME280;38802;50.198;19.796;2023-03-30T10:51:55;95712.19;;;12.86;56.82
52935;BME280;38802;50.198;19.796;2023-03-30T10:57:21;95704.87;;;13.01;56.17
52935;BME280;38802;50.198;19.796;2023-03-30T11:02:50;95693.73;;;13.20;56.88
52935;BME280;38802;50.198;19.796;2023-03-30T11:05:26;95687.55;;;13.34;56.11
52935;BME280;38802;50.198;19.796;2023-03-30T11:08:01;95684.84;;;13.40;55.88
52935;BME280;38802;50.198;19.796;2023-03-30T11:10:39;95679.58;;;13.40;55.96
52935;BME280;38802;50.198;19.796;2023-03-30T11:13:16;95672.80;;;13.38;56.00
52935;BME280;38802;50.198;19.796;2023-03-30T11:15:48;95666.16;;;13.49;56.25
52935;BME280;38802;50.198;19.796;2023-03-30T11:21:04;95667.96;;;13.72;55.73
52935;BME280;38802;50.198;19.796;2023-03-30T11:26:21;95666.69;;;13.75;55.10
52935;BME280;38802;50.198;19.796;2023-03-30T11:34:06;95661.17;;;13.43;53.93
52935;BME280;38802;50.198;19.796;2023-03-30T11:36:56;95658.95;;;13.30;54.61
52935;BME280;38802;50.198;19.796;2023-03-30T11:39:30;95653.50;;;13.26;54.63
52935;BME280;38802;50.198;19.796;2023-03-30T11:44:37;95651.98;;;13.17;54.93
52935;BME280;38802;50.198;19.796;2023-03-30T11:50:11;95657.47;;;13.19;55.18
52935;BME280;38802;50.198;19.796;2023-03-30T11:55:55;95660.67;;;13.19;55.07
52935;BME280;38802;50.198;19.796;2023-03-30T11:58:33;95661.84;;;13.09;55.07
52935;BME280;38802;50.198;19.796;2023-03-30T12:01:40;95657.38;;;13.01;55.30
52935;BME280;38802;50.198;19.796;2023-03-30T12:04:15;95655.27;;;12.98;55.87
52935;BME280;38802;50.198;19.796;2023-03-30T12:09:37;95636.02;;;13.00;55.58
52935;BME280;38802;50.198;19.796;2023-03-30T12:12:14;95634.92;;;13.03;55.92
52935;BME280;38802;50.198;19.796;2023-03-30T12:14:54;95624.83;;;13.04;55.65
52935;BME280;38802;50.198;19.796;2023-03-30T12:25:17;95602.88;;;13.07;55.88
52935;BME280;38802;50.198;19.796;2023-03-30T12:28:12;95601.93;;;13.08;55.83
52935;BME280;38802;50.198;19.796;2023-03-30T12:30:59;95602.19;;;13.07;56.29
52935;BME280;38802;50.198;19.796;2023-03-30T12:36:35;95603.21;;;13.04;56.35
52935;BME280;38802;50.198;19.796;2023-03-30T12:39:19;95602.11;;;13.11;56.64
52935;BME280;38802;50.198;19.796;2023-03-30T12:42:00;95606.61;;;13.15;56.51
52935;BME280;38802;50.198;19.796;2023-03-30T12:44:42;95613.02;;;13.10;56.37
52935;BME280;38802;50.198;19.796;2023-03-30T12:56:05;95611.39;;;13.20;56.57
52935;BME280;38802;50.198;19.796;2023-03-30T13:04:38;95619.16;;;13.07;56.27
52935;BME280;38802;50.198;19.796;2023-03-30T13:07:14;95610.15;;;13.11;56.36
52935;BME280;38802;50.198;19.796;2023-03-30T13:09:59;95606.92;;;13.07;56.05
52935;BME280;38802;50.198;19.796;2023-03-30T13:15:03;95608.05;;;13.03;56.61
52935;BME280;38802;50.198;19.796;2023-03-30T13:20:26;95606.91;;;13.00;56.46
52935;BME280;38802;50.198;19.796;2023-03-30T13:28:43;95601.05;;;12.87;56.28
52935;BME280;38802;50.198;19.796;2023-03-30T13:42:22;95593.67;;;12.59;56.78
52935;BME280;38802;50.198;19.796;2023-03-30T13:50:23;95599.39;;;12.47;57.31
52935;BME280;38802;50.198;19.796;2023-03-30T13:52:54;95605.64;;;12.44;57.20
52935;BME280;38802;50.198;19.796;2023-03-30T13:55:30;95605.16;;;12.31;57.17
52935;BME280;38802;50.198;19.796;2023-03-30T13:58:04;95609.92;;;12.20;57.41
52935;BME280;38802;50.198;19.796;2023-03-30T14:00:37;95610.48;;;12.12;57.62
52935;BME280;38802;50.198;19.796;2023-03-30T14:03:41;95610.26;;;12.09;57.81
52935;BME280;38802;50.198;19.796;2023-03-30T14:06:19;95605.70;;;12.06;58.01
52935;BME280;38802;50.198;19.796;2023-03-30T14:08:50;95603.67;;;12.02;58.12
52935;BME280;38802;50.198;19.796;2023-03-30T14:11:31;95600.48;;;12.03;58.29
52935;BME280;38802;50.198;19.796;2023-03-30T14:14:02;95595.42;;;12.03;58.33
52935;BME280;38802;50.198;19.796;2023-03-30T14:16:35;95594.44;;;11.99;58.39
52935;BME280;38802;50.198;19.796;2023-03-30T14:19:25;95596.64;;;11.92;58.41
52935;BME280;38802;50.198;19.796;2023-03-30T14:22:09;95596.96;;;11.92;58.59
52935;BME280;38802;50.198;19.796;2023-03-30T14:24:57;95599.20;;;11.91;58.59
52935;BME280;38802;50.198;19.796;2023-03-30T14:27:31;95597.09;;;11.91;58.70
52935;BME280;38802;50.198;19.796;2023-03-30T14:30:00;95594.83;;;11.93;58.78
52935;BME280;38802;50.198;19.796;2023-03-30T14:32:32;95592.36;;;11.91;58.84
52935;BME280;38802;50.198;19.796;2023-03-30T14:35:04;95591.20;;;11.89;58.90
52935;BME280;38802;50.198;19.796;2023-03-30T14:37:46;95589.80;;;11.86;59.24
52935;BME280;38802;50.198;19.796;2023-03-30T14:40:21;95588.11;;;11.83;59.22
52935;BME280;38802;50.198;19.796;2023-03-30T14:42:50;95587.78;;;11.83;59.63
52935;BME280;38802;50.198;19.796;2023-03-30T14:45:19;95584.98;;;11.83;59.86
52935;BME280;38802;50.198;19.796;2023-03-30T14:47:48;95582.05;;;11.85;60.20
52935;BME280;38802;50.198;19.796;2023-03-30T14:50:16;95579.48;;;11.82;60.30
52935;BME280;38802;50.198;19.796;2023-03-30T14:52:45;95577.20;;;11.91;60.55
52935;BME280;38802;50.198;19.796;2023-03-30T14:55:23;95577.62;;;11.85;60.63
52935;BME280;38802;50.198;19.796;2023-03-30T14:57:52;95575.95;;;11.92;60.94
52935;BME280;38802;50.198;19.796;2023-03-30T15:00:22;95569.75;;;11.97;61.05
52935;BME280;38802;50.198;19.796;2023-03-30T15:02:54;95570.20;;;12.01;61.29
52935;BME280;38802;50.198;19.796;2023-03-30T15:05:27;95566.11;;;12.02;61.39
52935;BME280;38802;50.198;19.796;2023-03-30T15:07:56;95561.39;;;12.02;61.61
52935;BME280;38802;50.198;19.796;2023-03-30T15:10:31;95559.95;;;12.01;61.88
52935;BME280;38802;50.198;19.796;2023-03-30T15:13:01;95561.39;;;11.88;61.86
52935;BME280;38802;50.198;19.796;2023-03-30T15:15:31;95564.35;;;11.80;62.40
52935;BME280;38802;50.198;19.796;2023-03-30T15:18:01;95562.44;;;11.75;62.67
52935;BME280;38802;50.198;19.796;2023-03-30T15:20:30;95559.67;;;11.73;63.31
52935;BME280;38802;50.198;19.796;2023-03-30T15:22:59;95562.66;;;11.60;63.46
52935;BME280;38802;50.198;19.796;2023-03-30T15:25:31;95560.63;;;11.52;64.15
52935;BME280;38802;50.198;19.796;2023-03-30T15:28:06;95552.45;;;11.54;64.65
52935;BME280;38802;50.198;19.796;2023-03-30T15:30:37;95557.83;;;11.40;65.17
52935;BME280;38802;50.198;19.796;2023-03-30T15:36:11;95552.38;;;11.19;66.81
52935;BME280;38802;50.198;19.796;2023-03-30T15:39:19;95550.19;;;11.02;67.06
52935;BME280;38802;50.198;19.796;2023-03-30T15:44:36;95539.06;;;10.82;67.93
52935;BME280;38802;50.198;19.796;2023-03-30T15:47:13;95531.86;;;10.77;68.86
52935;BME280;38802;50.198;19.796;2023-03-30T15:49:48;95528.84;;;10.72;69.79
52935;BME280;38802;50.198;19.796;2023-03-30T15:52:25;95528.23;;;10.57;69.72
52935;BME280;38802;50.198;19.796;2023-03-30T15:54:54;95527.56;;;10.51;70.18